Time;durP1;ratioP1;P1;durP2;ratioP2;P2;SDS_P1;SDS_P2;PMS_P1;PMS_P2;Temp;Humidity;BMP_temperature;BMP_pressure;BME280_temperature;BME280_humidity;BME280_pressure;Samples;Min_cycle;Max_cycle;Signal;HPM_P1;HPM_P2
2023/07/19 00:01:37;;;;;;;;;;;;;;;;;;4981242;28;20250;-94
2023/07/19 00:04:03;;;;;;;;;;;;;;;;;;5014946;28;19921;-94
2023/07/19 00:06:29;;;;;;;;;;;;;;;;;;4981429;28;19928;-94
2023/07/19 00:08:55;;;;;;;;;;;;;;;;;;4981364;28;19947;-95
2023/07/19 00:11:21;;;;;;;;;;;;;;;;;;4981056;28;20377;-94
2023/07/19 00:13:47;;;;;;;;;;;;;;;;;;4981327;28;19952;-94
2023/07/19 00:16:13;;;;;;;;;;;;;;;;;;4997298;28;19928;-94
2023/07/19 00:18:39;;;;;;;;;;;;;;;;;;5014536;28;19931;-93
2023/07/19 00:21:05;;;;;;;;;;;;;;;;;;4980670;28;19921;-93
2023/07/19 00:23:30;;;;;;;;;;;;;;;;;;4996960;28;19925;-94
2023/07/19 00:25:56;;;;;;;;;;;;;;;;;;5014439;28;20309;-94
2023/07/19 00:28:22;;;;;;;;;;;;;;;;;;4997175;28;20334;-95
2023/07/19 00:30:48;;;;;;;;;;;;;;;;;;4997348;28;20016;-94
2023/07/19 00:33:14;;;;;;;;;;;;;;;;;;4997290;28;20012;-93
2023/07/19 00:35:43;;;;;;;;;;;;;;;;;;5014376;28;20403;-93
2023/07/19 00:38:09;;;;;;;;;;;;;;;;;;4996610;28;19933;-94
2023/07/19 00:40:35;;;;;;;;;;;;;;;;;;4980666;28;19969;-94
2023/07/19 00:43:01;;;;;;;;;;;;;;;;;;4997210;28;19928;-95
2023/07/19 00:45:27;;;;;;;;;;;;;;;;;;5014219;28;19925;-94
2023/07/19 00:47:53;;;;;;;;;;;;;;;;;;4980098;28;19980;-94
2023/07/19 00:50:19;;;;;;;;;;;;;;;;;;4980885;28;20015;-93
2023/07/19 00:52:44;;;;;;;;;;;;;;;;;;4996729;28;19921;-94
2023/07/19 00:55:10;;;;;;;;;;;;;;;;;;4996202;28;19926;-93
2023/07/19 00:57:36;;;;;;;;;;;;;;;;;;4980077;28;20056;-96
2023/07/19 01:00:04;;;;;;;;;;;;;;;;;;5014048;28;19969;-95
2023/07/19 01:02:30;;;;;;;;;;;;;;;;;;4980573;28;20349;-95
2023/07/19 01:04:57;;;;;;;;;;;;;;;;;;5013703;28;20061;-93
2023/07/19 01:07:22;;;;;;;;;;;;;;;;;;4996699;28;20015;-91
2023/07/19 01:09:49;;;;;;;;;;;;;;;;;;4980068;28;19961;-93
2023/07/19 01:12:14;;;;;;;;;;;;;;;;;;4979883;28;19921;-91
2023/07/19 01:14:41;;;;;;;;;;;;;;;;;;4979613;28;19926;-93
2023/07/19 01:17:07;;;;;;;;;;;;;;;;;;4979880;28;19926;-92
2023/07/19 01:19:32;;;;;;;;;;;;;;;;;;4995883;28;19927;-93
2023/07/19 01:21:58;;;;;;;;;;;;;;;;;;5013520;28;19921;-93
2023/07/19 01:24:24;;;;;;;;;;;;;;;;;;4995823;28;20000;-94
2023/07/19 01:26:50;;;;;;;;;;;;;;;;;;4995735;28;19921;-93
2023/07/19 01:29:16;;;;;;;;;;;;;;;;;;4979661;28;20274;-93
2023/07/19 01:31:42;;;;;;;;;;;;;;;;;;4996099;28;19948;-95
2023/07/19 01:34:08;;;;;;;;;;;;;;;;;;4980166;28;19929;-95
2023/07/19 01:36:34;;;;;;;;;;;;;;;;;;4995807;28;20008;-94
2023/07/19 01:39:00;;;;;;;;;;;;;;;;;;4996173;28;20023;-93
2023/07/19 01:41:26;;;;;;;;;;;;;;;;;;4979623;28;19947;-94
2023/07/19 01:43:52;;;;;;;;;;;;;;;;;;4980169;28;19921;-94
2023/07/19 01:46:18;;;;;;;;;;;;;;;;;;4996053;28;20024;-94
2023/07/19 01:48:44;;;;;;;;;;;;;;;;;;4979820;28;20052;-95
2023/07/19 01:51:10;;;;;;;;;;;;;;;;;;5013430;28;19925;-95
2023/07/19 01:53:36;;;;;;;;;;;;;;;;;;4979574;28;19921;-96
2023/07/19 01:56:02;;;;;;;;;;;;;;;;;;4995960;28;19969;-95
2023/07/19 01:58:28;;;;;;;;;;;;;;;;;;4995715;28;19925;-95
2023/07/19 02:00:54;;;;;;;;;;;;;;;;;;4980280;28;20132;-95
2023/07/19 02:03:20;;;;;;;;;;;;;;;;;;4979640;28;20650;-94
2023/07/19 02:05:46;;;;;;;;;;;;;;;;;;4995644;28;19944;-94
2023/07/19 02:08:12;;;;;;;;;;;;;;;;;;4997618;28;19968;-95
2023/07/19 02:10:38;;;;;;;;;;;;;;;;;;4983125;28;20368;-94
2023/07/19 02:13:04;;;;;;;;;;;;;;;;;;4999543;28;19925;-94
2023/07/19 02:15:30;;;;;;;;;;;;;;;;;;4984099;28;19929;-95
2023/07/19 02:17:56;;;;;;;;;;;;;;;;;;4983093;28;19925;-94
2023/07/19 02:20:22;;;;;;;;;;;;;;;;;;5017084;28;19943;-94
2023/07/19 02:22:48;;;;;;;;;;;;;;;;;;4999675;28;19992;-94
2023/07/19 02:25:14;;;;;;;;;;;;;;;;;;4999623;28;19928;-94
2023/07/19 02:27:40;;;;;;;;;;;;;;;;;;4983303;28;20289;-94
2023/07/19 02:30:06;;;;;;;;;;;;;;;;;;4999103;28;19953;-94
2023/07/19 02:32:32;;;;;;;;;;;;;;;;;;4999415;28;20370;-94
2023/07/19 02:34:58;;;;;;;;;;;;;;;;;;4998911;28;19929;-95
2023/07/19 02:37:24;;;;;;;;;;;;;;;;;;4982950;28;19925;-94
2023/07/19 02:39:50;;;;;;;;;;;;;;;;;;4983106;28;19928;-95
2023/07/19 02:42:16;;;;;;;;;;;;;;;;;;4982822;28;20250;-94
2023/07/19 02:44:42;;;;;;;;;;;;;;;;;;4982800;28;20428;-94
2023/07/19 02:47:08;;;;;;;;;;;;;;;;;;4998613;28;20023;-95
2023/07/19 02:49:34;;;;;;;;;;;;;;;;;;4998876;28;19921;-94
2023/07/19 02:52:00;;;;;;;;;;;;;;;;;;4982244;28;19980;-94
2023/07/19 02:54:26;;;;;;;;;;;;;;;;;;4999152;28;20004;-94
2023/07/19 02:56:52;;;;;;;;;;;;;;;;;;4982672;28;20012;-94
2023/07/19 02:59:18;;;;;;;;;;;;;;;;;;4982489;28;19929;-94
2023/07/19 03:01:44;;;;;;;;;;;;;;;;;;4998518;28;19929;-95
2023/07/19 03:04:12;;;;;;;;;;;;;;;;;;4982168;28;19925;-94
2023/07/19 03:06:38;;;;;;;;;;;;;;;;;;4982123;28;19925;-94
2023/07/19 03:09:06;;;;;;;;;;;;;;;;;;4982133;28;19925;-95
2023/07/19 03:11:32;;;;;;;;;;;;;;;;;;4982201;28;19921;-95
2023/07/19 03:13:58;;;;;;;;;;;;;;;;;;4982037;28;20290;-94
2023/07/19 03:16:23;;;;;;;;;;;;;;;;;;4982533;28;19976;-95
2023/07/19 03:18:49;;;;;;;;;;;;;;;;;;4997032;28;19965;-94
2023/07/19 03:21:15;;;;;;;;;;;;;;;;;;4998497;28;19933;-94
2023/07/19 03:23:41;;;;;;;;;;;;;;;;;;4982082;28;19957;-95
2023/07/19 03:26:07;;;;;;;;;;;;;;;;;;4981984;28;19921;-93
2023/07/19 03:28:33;;;;;;;;;;;;;;;;;;4998390;28;19976;-94
2023/07/19 03:30:59;;;;;;;;;;;;;;;;;;4982210;28;20391;-96
2023/07/19 03:33:25;;;;;;;;;;;;;;;;;;4998177;28;19921;-95
2023/07/19 03:35:51;;;;;;;;;;;;;;;;;;4997797;28;19921;-94
2023/07/19 03:38:17;;;;;;;;;;;;;;;;;;4997549;28;19933;-93
2023/07/19 03:40:43;;;;;;;;;;;;;;;;;;4981768;28;19929;-94
2023/07/19 03:43:09;;;;;;;;;;;;;;;;;;5015479;28;19955;-94
2023/07/19 03:45:35;;;;;;;;;;;;;;;;;;4997762;28;19932;-95
2023/07/19 03:48:01;;;;;;;;;;;;;;;;;;4981354;28;19930;-96
2023/07/19 03:50:27;;;;;;;;;;;;;;;;;;5015818;28;20320;-95
2023/07/19 03:52:53;;;;;;;;;;;;;;;;;;5015522;28;20020;-94
2023/07/19 03:55:18;;;;;;;;;;;;;;;;;;4981130;28;19928;-95
2023/07/19 03:57:45;;;;;;;;;;;;;;;;;;4981437;28;19933;-95
2023/07/19 04:00:11;;;;;;;;;;;;;;;;;;4997615;28;20278;-94
2023/07/19 04:02:37;;;;;;;;;;;;;;;;;;4981630;28;19929;-92
2023/07/19 04:05:03;;;;;;;;;;;;;;;;;;4998071;28;20008;-94
2023/07/19 04:07:29;;;;;;;;;;;;;;;;;;4981534;28;19963;-94
2023/07/19 04:09:55;;;;;;;;;;;;;;;;;;4997944;28;19921;-93
2023/07/19 04:12:21;;;;;;;;;;;;;;;;;;4981638;28;19975;-93
2023/07/19 04:14:47;;;;;;;;;;;;;;;;;;4997103;28;19921;-93
2023/07/19 04:17:13;;;;;;;;;;;;;;;;;;4998529;28;19941;-93
2023/07/19 04:19:39;;;;;;;;;;;;;;;;;;4984714;28;19932;-94
2023/07/19 04:22:05;;;;;;;;;;;;;;;;;;4985124;28;19928;-93
2023/07/19 04:24:31;;;;;;;;;;;;;;;;;;5002730;28;19960;-94
2023/07/19 04:26:57;;;;;;;;;;;;;;;;;;5001889;28;19922;-94
2023/07/19 04:29:23;;;;;;;;;;;;;;;;;;4983930;28;19932;-93
2023/07/19 04:31:48;;;;;;;;;;;;;;;;;;4998627;28;19921;-92
2023/07/19 04:34:15;;;;;;;;;;;;;;;;;;4982092;28;19926;-93
2023/07/19 04:36:41;;;;;;;;;;;;;;;;;;4998512;28;20012;-94
2023/07/19 04:39:07;;;;;;;;;;;;;;;;;;4997946;28;19971;-93
2023/07/19 04:41:33;;;;;;;;;;;;;;;;;;5002206;28;19929;-94
2023/07/19 04:43:58;;;;;;;;;;;;;;;;;;5001517;28;20011;-94
2023/07/19 04:46:24;;;;;;;;;;;;;;;;;;4982979;28;19976;-93
2023/07/19 04:48:50;;;;;;;;;;;;;;;;;;5017362;28;19921;-94
2023/07/19 04:51:16;;;;;;;;;;;;;;;;;;4997979;28;20365;-95
2023/07/19 04:53:42;;;;;;;;;;;;;;;;;;4981129;28;19921;-94
2023/07/19 04:56:08;;;;;;;;;;;;;;;;;;4996703;28;19972;-93
2023/07/19 04:58:34;;;;;;;;;;;;;;;;;;4996022;28;19926;-91
2023/07/19 05:01:00;;;;;;;;;;;;;;;;;;4996094;28;19921;-91
2023/07/19 05:03:26;;;;;;;;;;;;;;;;;;4979204;28;19989;-93
2023/07/19 05:05:52;;;;;;;;;;;;;;;;;;4996078;28;19975;-93
2023/07/19 05:08:18;;;;;;;;;;;;;;;;;;4995894;28;19928;-93
2023/07/19 05:10:44;;;;;;;;;;;;;;;;;;4995825;28;19929;-92
2023/07/19 05:13:10;;;;;;;;;;;;;;;;;;5012968;28;19921;-87
2023/07/19 05:15:36;;;;;;;;;;;;;;;;;;4994826;28;19922;-85
2023/07/19 05:18:02;;;;;;;;;;;;;;;;;;5012625;28;20326;-88
2023/07/19 05:20:28;;;;;;;;;;;;;;;;;;4978596;28;19929;-88
2023/07/19 05:22:54;;;;;;;;;;;;;;;;;;4995222;28;19921;-89
2023/07/19 05:25:20;;;;;;;;;;;;;;;;;;5012617;28;20440;-89
2023/07/19 05:27:46;;;;;;;;;;;;;;;;;;4994819;28;19932;-90
2023/07/19 05:30:12;;;;;;;;;;;;;;;;;;4994755;28;20349;-88
2023/07/19 05:32:38;;;;;;;;;;;;;;;;;;4978528;28;19922;-86
2023/07/19 05:35:03;;;;;;;;;;;;;;;;;;5012490;28;19925;-89
2023/07/19 05:37:29;;;;;;;;;;;;;;;;;;5012493;28;20322;-89
2023/07/19 05:39:55;;;;;;;;;;;;;;;;;;5012635;28;20309;-90
2023/07/19 05:42:21;;;;;;;;;;;;;;;;;;4996366;28;20369;-90
2023/07/19 05:44:47;;;;;;;;;;;;;;;;;;4998988;28;19921;-93
2023/07/19 05:47:13;;;;;;;;;;;;;;;;;;4999437;28;20028;-92
2023/07/19 05:49:39;;;;;;;;;;;;;;;;;;4999624;28;19921;-90
2023/07/19 05:52:05;;;;;;;;;;;;;;;;;;4999403;28;20044;-95
2023/07/19 05:54:31;;;;;;;;;;;;;;;;;;4999821;28;19994;-91
2023/07/19 05:56:58;;;;;;;;;;;;;;;;;;4982382;28;19976;-90
2023/07/19 05:59:24;;;;;;;;;;;;;;;;;;4999016;28;19928;-91
2023/07/19 06:01:49;;;;;;;;;;;;;;;;;;4999643;28;20008;-90
2023/07/19 06:04:15;;;;;;;;;;;;;;;;;;4982964;28;20274;-90
2023/07/19 06:06:41;;;;;;;;;;;;;;;;;;4982631;28;19991;-90
2023/07/19 06:09:08;;;;;;;;;;;;;;;;;;5016385;28;20401;-90
2023/07/19 06:11:34;;;;;;;;;;;;;;;;;;4998817;28;20011;-90
2023/07/19 06:14:00;;;;;;;;;;;;;;;;;;4999122;28;19968;-90
2023/07/19 06:16:26;;;;;;;;;;;;;;;;;;4998702;28;20052;-90
2023/07/19 06:18:52;;;;;;;;;;;;;;;;;;4981960;28;20373;-89
2023/07/19 06:21:18;;;;;;;;;;;;;;;;;;4998259;28;20016;-89
2023/07/19 06:23:43;;;;;;;;;;;;;;;;;;4998379;28;19965;-90
2023/07/19 06:26:09;;;;;;;;;;;;;;;;;;4998025;28;19989;-87
2023/07/19 06:28:35;;;;;;;;;;;;;;;;;;4998127;28;20012;-88
2023/07/19 06:31:01;;;;;;;;;;;;;;;;;;4998329;28;20266;-88
2023/07/19 06:33:28;;;;;;;;;;;;;;;;;;5015896;28;19928;-89
2023/07/19 06:35:54;;;;;;;;;;;;;;;;;;4976968;28;19928;-90
2023/07/19 06:38:20;;;;;;;;;;;;;;;;;;4995789;28;20373;-89
2023/07/19 06:40:46;;;;;;;;;;;;;;;;;;4980774;28;19925;-89
2023/07/19 06:43:12;;;;;;;;;;;;;;;;;;4981618;28;19928;-90
2023/07/19 06:45:38;;;;;;;;;;;;;;;;;;4997899;28;19928;-89
2023/07/19 06:48:04;;;;;;;;;;;;;;;;;;4997496;28;19952;-89
2023/07/19 06:50:30;;;;;;;;;;;;;;;;;;5015341;28;19922;-90
2023/07/19 06:52:55;;;;;;;;;;;;;;;;;;4997414;28;19928;-90
2023/07/19 06:55:23;;;;;;;;;;;;;;;;;;5015248;28;19928;-90
2023/07/19 06:57:49;;;;;;;;;;;;;;;;;;4981254;28;19926;-90
2023/07/19 07:00:15;;;;;;;;;;;;;;;;;;4998280;28;19928;-89
2023/07/19 07:02:41;;;;;;;;;;;;;;;;;;5015311;28;20016;-89
2023/07/19 07:05:10;;;;;;;;;;;;;;;;;;4981206;28;19925;-89
2023/07/19 07:07:37;;;;;;;;;;;;;;;;;;4997407;28;19921;-89
2023/07/19 07:10:05;;;;;;;;;;;;;;;;;;4980829;28;20053;-89
2023/07/19 07:12:31;;;;;;;;;;;;;;;;;;4981363;28;20308;-89
2023/07/19 07:14:56;;;;;;;;;;;;;;;;;;5015130;28;19922;-88
2023/07/19 07:17:22;;;;;;;;;;;;;;;;;;5014751;28;20023;-89
2023/07/19 07:19:48;;;;;;;;;;;;;;;;;;4980822;28;20453;-89
2023/07/19 07:22:15;;;;;;;;;;;;;;;;;;4996809;28;19921;-89
2023/07/19 07:24:41;;;;;;;;;;;;;;;;;;4996822;28;19933;-88
2023/07/19 07:27:08;;;;;;;;;;;;;;;;;;4980723;28;19922;-88
2023/07/19 07:29:35;;;;;;;;;;;;;;;;;;4996824;28;19949;-88
2023/07/19 07:32:01;;;;;;;;;;;;;;;;;;4997100;28;20389;-91
2023/07/19 07:34:26;;;;;;;;;;;;;;;;;;4981004;28;20036;-87
2023/07/19 07:36:52;;;;;;;;;;;;;;;;;;4996524;28;20387;-87
2023/07/19 07:39:19;;;;;;;;;;;;;;;;;;4996673;28;19925;-87
2023/07/19 07:41:45;;;;;;;;;;;;;;;;;;5014324;28;19921;-87
2023/07/19 07:44:10;;;;;;;;;;;;;;;;;;4980635;28;19926;-88
2023/07/19 07:46:37;;;;;;;;;;;;;;;;;;4996259;28;19928;-87
2023/07/19 07:49:04;;;;;;;;;;;;;;;;;;4980538;28;19979;-90
2023/07/19 07:51:30;;;;;;;;;;;;;;;;;;4980195;28;19947;-90
2023/07/19 07:53:56;;;;;;;;;;;;;;;;;;4980025;28;19921;-88
2023/07/19 07:56:22;;;;;;;;;;;;;;;;;;5014041;28;19921;-89
2023/07/19 07:58:48;;;;;;;;;;;;;;;;;;4996337;28;19925;-90
2023/07/19 08:01:14;;;;;;;;;;;;;;;;;;4996459;28;19929;-90
2023/07/19 08:03:40;;;;;;;;;;;;;;;;;;4996926;28;19928;-90
2023/07/19 08:06:06;;;;;;;;;;;;;;;;;;4995748;28;20008;-89
2023/07/19 08:08:32;;;;;;;;;;;;;;;;;;4996169;28;20019;-90
2023/07/19 08:10:58;;;;;;;;;;;;;;;;;;4996271;28;19925;-90
2023/07/19 08:13:24;;;;;;;;;;;;;;;;;;4980237;28;19980;-91
2023/07/19 08:15:49;;;;;;;;;;;;;;;;;;4997205;28;19979;-92
2023/07/19 08:18:15;;;;;;;;;;;;;;;;;;4980451;28;20100;-93
2023/07/19 08:20:41;;;;;;;;;;;;;;;;;;4997824;28;19925;-93
2023/07/19 08:23:07;;;;;;;;;;;;;;;;;;4980354;28;19922;-92
2023/07/19 08:25:33;;;;;;;;;;;;;;;;;;4997084;28;20024;-92
2023/07/19 08:27:59;;;;;;;;;;;;;;;;;;4996389;28;19972;-92
2023/07/19 08:30:25;;;;;;;;;;;;;;;;;;5014309;28;19928;-93
2023/07/19 08:32:51;;;;;;;;;;;;;;;;;;4996670;28;19925;-93
2023/07/19 08:35:17;;;;;;;;;;;;;;;;;;4980737;28;20388;-93
2023/07/19 08:37:43;;;;;;;;;;;;;;;;;;5014091;28;19933;-94
2023/07/19 08:40:09;;;;;;;;;;;;;;;;;;4981052;28;20304;-94
2023/07/19 08:42:35;;;;;;;;;;;;;;;;;;4980782;28;19922;-94
2023/07/19 08:45:01;;;;;;;;;;;;;;;;;;4997010;28;19961;-96
2023/07/19 08:47:28;;;;;;;;;;;;;;;;;;4997107;28;20444;-94
2023/07/19 08:49:53;;;;;;;;;;;;;;;;;;4997623;28;20016;-95
2023/07/19 08:52:19;;;;;;;;;;;;;;;;;;5016848;28;19961;-94
2023/07/19 08:54:45;;;;;;;;;;;;;;;;;;4997618;28;19928;-94
2023/07/19 08:57:11;;;;;;;;;;;;;;;;;;4998566;28;19929;-94
2023/07/19 08:59:37;;;;;;;;;;;;;;;;;;5014754;28;20293;-94
2023/07/19 09:02:03;;;;;;;;;;;;;;;;;;4980469;28;20067;-94
2023/07/19 09:04:29;;;;;;;;;;;;;;;;;;4980458;28;20052;-94
2023/07/19 09:06:55;;;;;;;;;;;;;;;;;;4996059;28;20392;-92
2023/07/19 09:09:21;;;;;;;;;;;;;;;;;;5013838;28;19925;-94
2023/07/19 09:11:49;;;;;;;;;;;;;;;;;;5014065;28;19929;-92
2023/07/19 09:14:18;;;;;;;;;;;;;;;;;;4980786;28;19968;-94
2023/07/19 09:16:44;;;;;;;;;;;;;;;;;;4996552;28;20000;-95
2023/07/19 09:19:13;;;;;;;;;;;;;;;;;;4997915;28;19964;-94
2023/07/19 09:21:39;;;;;;;;;;;;;;;;;;4981760;28;19968;-94
2023/07/19 09:24:05;;;;;;;;;;;;;;;;;;4996116;28;20282;-92
2023/07/19 09:26:31;;;;;;;;;;;;;;;;;;4995933;28;19977;-95
2023/07/19 09:28:57;;;;;;;;;;;;;;;;;;4980083;28;19973;-93
2023/07/19 09:31:22;;;;;;;;;;;;;;;;;;4980068;28;19922;-93
2023/07/19 09:33:48;;;;;;;;;;;;;;;;;;4997068;28;20340;-94
2023/07/19 09:36:14;;;;;;;;;;;;;;;;;;4998367;28;19921;-94
2023/07/19 09:38:40;;;;;;;;;;;;;;;;;;4979870;28;19925;-96
2023/07/19 09:41:06;;;;;;;;;;;;;;;;;;4995902;28;19928;-93
2023/07/19 09:43:32;;;;;;;;;;;;;;;;;;4980084;28;19922;-92
2023/07/19 09:46:00;;;;;;;;;;;;;;;;;;4996164;28;20341;-92
2023/07/19 09:48:28;;;;;;;;;;;;;;;;;;4995841;28;20419;-94
2023/07/19 09:50:54;;;;;;;;;;;;;;;;;;4979913;28;19948;-94
2023/07/19 09:53:20;;;;;;;;;;;;;;;;;;4996117;28;19922;-95
2023/07/19 09:55:49;;;;;;;;;;;;;;;;;;4983318;28;19956;-94
2023/07/19 09:58:15;;;;;;;;;;;;;;;;;;4996587;28;20296;-94
2023/07/19 10:00:41;;;;;;;;;;;;;;;;;;4979281;28;19925;-93
2023/07/19 10:03:10;;;;;;;;;;;;;;;;;;4995705;28;20373;-94
2023/07/19 10:05:37;;;;;;;;;;;;;;;;;;4995561;28;19929;-90
2023/07/19 10:08:04;;;;;;;;;;;;;;;;;;4979101;28;19929;-92
2023/07/19 10:10:29;;;;;;;;;;;;;;;;;;4995918;28;19921;-90
2023/07/19 10:12:55;;;;;;;;;;;;;;;;;;5012577;28;19922;-90
2023/07/19 10:15:21;;;;;;;;;;;;;;;;;;5012146;28;19933;-90
2023/07/19 10:17:47;;;;;;;;;;;;;;;;;;4978103;28;19926;-90
2023/07/19 10:20:14;;;;;;;;;;;;;;;;;;4994907;28;19921;-90
2023/07/19 10:22:40;;;;;;;;;;;;;;;;;;4994391;28;19922;-91
2023/07/19 10:25:06;;;;;;;;;;;;;;;;;;4978587;28;19922;-90
2023/07/19 10:27:32;;;;;;;;;;;;;;;;;;4994544;28;19921;-90
2023/07/19 10:29:58;;;;;;;;;;;;;;;;;;4981856;28;19921;-92
2023/07/19 10:32:24;;;;;;;;;;;;;;;;;;5016022;28;20373;-92
2023/07/19 10:34:49;;;;;;;;;;;;;;;;;;4998414;28;20310;-91
2023/07/19 10:37:15;;;;;;;;;;;;;;;;;;4999729;28;19926;-93
2023/07/19 10:39:41;;;;;;;;;;;;;;;;;;4998715;28;19925;-93
2023/07/19 10:42:07;;;;;;;;;;;;;;;;;;4982255;28;19921;-95
2023/07/19 10:44:33;;;;;;;;;;;;;;;;;;4999922;28;19921;-91
2023/07/19 10:46:59;;;;;;;;;;;;;;;;;;4981811;28;19926;-95
2023/07/19 10:49:25;;;;;;;;;;;;;;;;;;4984915;28;19921;-95
2023/07/19 10:51:52;;;;;;;;;;;;;;;;;;4984168;28;19925;-96
2023/07/19 10:54:17;;;;;;;;;;;;;;;;;;4999002;28;20380;-95
2023/07/19 10:56:43;;;;;;;;;;;;;;;;;;4984202;28;19921;-96
2023/07/19 10:59:10;;;;;;;;;;;;;;;;;;4987816;28;19921;-96
2023/07/19 11:01:36;;;;;;;;;;;;;;;;;;5004386;28;19975;-95
2023/07/19 11:04:02;;;;;;;;;;;;;;;;;;5016407;28;19981;-95
2023/07/19 11:06:28;;;;;;;;;;;;;;;;;;4982620;28;19927;-94
2023/07/19 11:08:54;;;;;;;;;;;;;;;;;;4998154;28;19921;-94
2023/07/19 11:11:29;;;;;;;;;;;;;;;;;;4983066;28;19949;-95
2023/07/19 11:14:03;;;;;;;;;;;;;;;;;;4999999;28;19974;-92
2023/07/19 11:16:29;;;;;;;;;;;;;;;;;;4982563;28;19980;-95
2023/07/19 11:18:55;;;;;;;;;;;;;;;;;;4987722;28;19992;-95
2023/07/19 11:21:21;;;;;;;;;;;;;;;;;;4998851;28;19932;-95
2023/07/19 11:23:47;;;;;;;;;;;;;;;;;;4981759;28;19966;-93
2023/07/19 11:26:13;;;;;;;;;;;;;;;;;;4983340;28;20305;-96
2023/07/19 11:28:40;;;;;;;;;;;;;;;;;;5020489;28;19932;-94
2023/07/19 11:31:06;;;;;;;;;;;;;;;;;;4981906;28;19921;-92
2023/07/19 11:33:34;;;;;;;;;;;;;;;;;;5001180;28;19932;-94
2023/07/19 11:36:00;;;;;;;;;;;;;;;;;;5032735;28;19921;-92
2023/07/19 11:38:26;;;;;;;;;;;;;;;;;;4982247;28;19984;-93
2023/07/19 11:40:52;;;;;;;;;;;;;;;;;;4980467;28;20273;-94
2023/07/19 11:43:18;;;;;;;;;;;;;;;;;;5030211;28;20284;-93
2023/07/19 11:45:44;;;;;;;;;;;;;;;;;;4997485;28;19928;-91
2023/07/19 11:48:10;;;;;;;;;;;;;;;;;;4981037;28;20016;-95
2023/07/19 11:50:38;;;;;;;;;;;;;;;;;;4980984;28;19926;-91
2023/07/19 11:53:05;;;;;;;;;;;;;;;;;;5030315;28;20069;-92
2023/07/19 11:55:31;;;;;;;;;;;;;;;;;;4980713;28;19932;-92
2023/07/19 11:58:03;;;;;;;;;;;;;;;;;;4980426;28;19930;-90
2023/07/19 12:00:29;;;;;;;;;;;;;;;;;;5029717;28;19929;-92
2023/07/19 12:02:55;;;;;;;;;;;;;;;;;;5029783;28;20215;-94
2023/07/19 12:05:21;;;;;;;;;;;;;;;;;;4980548;28;20056;-91
2023/07/19 12:07:48;;;;;;;;;;;;;;;;;;4996439;28;20453;-93
2023/07/19 12:10:14;;;;;;;;;;;;;;;;;;4996474;28;19948;-92
2023/07/19 12:12:40;;;;;;;;;;;;;;;;;;4979887;28;20350;-92
2023/07/19 12:15:06;;;;;;;;;;;;;;;;;;5029397;28;19921;-92
2023/07/19 12:17:32;;;;;;;;;;;;;;;;;;4995915;28;20443;-92
2023/07/19 12:20:00;;;;;;;;;;;;;;;;;;5030420;28;19921;-94
2023/07/19 12:22:27;;;;;;;;;;;;;;;;;;5012979;28;19921;-96
2023/07/19 12:24:52;;;;;;;;;;;;;;;;;;4981043;28;19926;-93
2023/07/19 12:27:18;;;;;;;;;;;;;;;;;;4996486;28;20027;-93
2023/07/19 12:29:44;;;;;;;;;;;;;;;;;;4980349;28;19928;-92
2023/07/19 12:32:10;;;;;;;;;;;;;;;;;;4980435;28;19944;-96
2023/07/19 12:34:42;;;;;;;;;;;;;;;;;;5000830;28;20326;-94
2023/07/19 12:37:08;;;;;;;;;;;;;;;;;;5014469;28;19925;-94
2023/07/19 12:39:34;;;;;;;;;;;;;;;;;;4996984;28;20020;-92
2023/07/19 12:42:00;;;;;;;;;;;;;;;;;;4980320;28;20005;-91
2023/07/19 12:44:26;;;;;;;;;;;;;;;;;;4979241;28;19921;-90
2023/07/19 12:46:52;;;;;;;;;;;;;;;;;;4995102;28;19992;-91
2023/07/19 12:49:21;;;;;;;;;;;;;;;;;;4978841;28;19948;-91
2023/07/19 12:51:47;;;;;;;;;;;;;;;;;;4979398;28;19921;-95
2023/07/19 12:54:13;;;;;;;;;;;;;;;;;;4979884;28;19944;-93
2023/07/19 12:56:39;;;;;;;;;;;;;;;;;;4995840;28;19922;-90
2023/07/19 12:59:05;;;;;;;;;;;;;;;;;;4995518;28;19925;-90
2023/07/19 13:01:31;;;;;;;;;;;;;;;;;;4995650;28;19944;-90
2023/07/19 13:03:57;;;;;;;;;;;;;;;;;;4995536;28;19922;-87
2023/07/19 13:06:23;;;;;;;;;;;;;;;;;;4995105;28;20273;-88
2023/07/19 13:08:49;;;;;;;;;;;;;;;;;;4994960;28;19921;-89
2023/07/19 13:11:16;;;;;;;;;;;;;;;;;;4978794;28;19995;-89
2023/07/19 13:13:42;;;;;;;;;;;;;;;;;;4978769;28;19921;-90
2023/07/19 13:16:08;;;;;;;;;;;;;;;;;;4994908;28;20047;-90
2023/07/19 13:18:34;;;;;;;;;;;;;;;;;;4995061;28;19944;-90
2023/07/19 13:21:00;;;;;;;;;;;;;;;;;;4978475;28;20027;-89
2023/07/19 13:23:26;;;;;;;;;;;;;;;;;;4994739;28;19943;-89
2023/07/19 13:25:52;;;;;;;;;;;;;;;;;;4995091;28;19922;-89
2023/07/19 13:28:18;;;;;;;;;;;;;;;;;;4994847;28;19927;-88
2023/07/19 13:30:44;;;;;;;;;;;;;;;;;;5012686;28;20008;-89
2023/07/19 13:33:10;;;;;;;;;;;;;;;;;;4978459;28;19921;-90
2023/07/19 13:35:36;;;;;;;;;;;;;;;;;;4978479;28;20373;-89
2023/07/19 13:38:02;;;;;;;;;;;;;;;;;;4978628;28;19933;-89
2023/07/19 13:40:28;;;;;;;;;;;;;;;;;;4978475;28;20327;-90
2023/07/19 13:42:54;;;;;;;;;;;;;;;;;;4978517;28;19922;-92
2023/07/19 13:45:20;;;;;;;;;;;;;;;;;;4994781;28;19921;-90
2023/07/19 13:47:45;;;;;;;;;;;;;;;;;;4978307;28;19925;-90
2023/07/19 13:50:11;;;;;;;;;;;;;;;;;;4978490;28;19933;-90
2023/07/19 13:52:37;;;;;;;;;;;;;;;;;;4978302;28;19929;-87
2023/07/19 13:55:04;;;;;;;;;;;;;;;;;;4994895;28;20297;-89
2023/07/19 13:57:30;;;;;;;;;;;;;;;;;;4994674;28;19925;-90
2023/07/19 13:59:56;;;;;;;;;;;;;;;;;;4978534;28;19932;-89
2023/07/19 14:02:22;;;;;;;;;;;;;;;;;;4994659;28;19921;-89
2023/07/19 14:04:48;;;;;;;;;;;;;;;;;;4999958;28;19939;-91
2023/07/19 14:07:14;;;;;;;;;;;;;;;;;;4983960;28;19958;-90
2023/07/19 14:09:40;;;;;;;;;;;;;;;;;;5016965;28;19933;-89
2023/07/19 14:12:05;;;;;;;;;;;;;;;;;;4999014;28;19922;-90
2023/07/19 14:14:31;;;;;;;;;;;;;;;;;;4982460;28;19925;-89
2023/07/19 14:16:57;;;;;;;;;;;;;;;;;;4982370;28;20362;-89
2023/07/19 14:19:23;;;;;;;;;;;;;;;;;;4986893;28;20388;-88
2023/07/19 14:21:49;;;;;;;;;;;;;;;;;;4998535;28;19932;-90
2023/07/19 14:24:15;;;;;;;;;;;;;;;;;;4999678;28;19922;-91
2023/07/19 14:26:41;;;;;;;;;;;;;;;;;;4983942;28;19948;-94
2023/07/19 14:29:07;;;;;;;;;;;;;;;;;;4985897;28;19970;-93
2023/07/19 14:31:33;;;;;;;;;;;;;;;;;;5019789;28;20013;-92
2023/07/19 14:33:59;;;;;;;;;;;;;;;;;;5018078;28;19922;-91
2023/07/19 14:36:25;;;;;;;;;;;;;;;;;;5000140;28;19921;-91
2023/07/19 14:38:51;;;;;;;;;;;;;;;;;;5000050;28;19929;-91
2023/07/19 14:41:17;;;;;;;;;;;;;;;;;;4999290;28;19929;-91
2023/07/19 14:43:43;;;;;;;;;;;;;;;;;;4998368;28;19921;-92
2023/07/19 14:46:09;;;;;;;;;;;;;;;;;;4998804;28;19925;-92
2023/07/19 14:48:36;;;;;;;;;;;;;;;;;;4998192;28;20057;-92
2023/07/19 14:51:02;;;;;;;;;;;;;;;;;;4998552;28;19928;-91
2023/07/19 14:53:29;;;;;;;;;;;;;;;;;;4998272;28;19927;-92
2023/07/19 14:55:55;;;;;;;;;;;;;;;;;;5016045;28;19996;-92
2023/07/19 14:58:21;;;;;;;;;;;;;;;;;;4981827;28;20416;-92
2023/07/19 15:00:47;;;;;;;;;;;;;;;;;;5015567;28;19928;-91
2023/07/19 15:03:13;;;;;;;;;;;;;;;;;;4998231;28;19948;-92
2023/07/19 15:05:39;;;;;;;;;;;;;;;;;;4998387;28;19929;-91
2023/07/19 15:08:05;;;;;;;;;;;;;;;;;;5015802;28;19922;-91
2023/07/19 15:10:31;;;;;;;;;;;;;;;;;;4982033;28;20400;-92
2023/07/19 15:12:56;;;;;;;;;;;;;;;;;;4982037;28;19965;-92
2023/07/19 15:15:22;;;;;;;;;;;;;;;;;;4998057;28;19922;-91
2023/07/19 15:17:48;;;;;;;;;;;;;;;;;;4997736;28;20297;-92
2023/07/19 15:20:14;;;;;;;;;;;;;;;;;;4997935;28;19929;-91
2023/07/19 15:22:40;;;;;;;;;;;;;;;;;;4997959;28;20337;-90
2023/07/19 15:25:06;;;;;;;;;;;;;;;;;;4981930;28;20257;-92
2023/07/19 15:27:32;;;;;;;;;;;;;;;;;;5015108;28;19926;-91
2023/07/19 15:29:59;;;;;;;;;;;;;;;;;;4998067;28;20076;-91
2023/07/19 15:32:25;;;;;;;;;;;;;;;;;;4997841;28;19960;-92
2023/07/19 15:34:51;;;;;;;;;;;;;;;;;;4997796;28;19984;-92
2023/07/19 15:37:17;;;;;;;;;;;;;;;;;;4997238;28;19925;-92
2023/07/19 15:39:43;;;;;;;;;;;;;;;;;;4997574;28;20284;-92
2023/07/19 15:42:09;;;;;;;;;;;;;;;;;;4997280;28;19922;-92
2023/07/19 15:44:35;;;;;;;;;;;;;;;;;;5014990;28;19922;-92
2023/07/19 15:47:01;;;;;;;;;;;;;;;;;;4980859;28;19949;-91
2023/07/19 15:49:27;;;;;;;;;;;;;;;;;;4997583;28;19938;-92
2023/07/19 15:51:52;;;;;;;;;;;;;;;;;;4980932;28;19983;-92
2023/07/19 15:54:20;;;;;;;;;;;;;;;;;;4997273;28;19928;-92
2023/07/19 15:56:45;;;;;;;;;;;;;;;;;;5014637;28;19925;-92
2023/07/19 15:59:11;;;;;;;;;;;;;;;;;;4996987;28;20020;-92
2023/07/19 16:01:37;;;;;;;;;;;;;;;;;;4996901;28;20428;-91
2023/07/19 16:04:03;;;;;;;;;;;;;;;;;;4980718;28;20059;-91
2023/07/19 16:06:29;;;;;;;;;;;;;;;;;;4997078;28;19945;-91
2023/07/19 16:08:55;;;;;;;;;;;;;;;;;;4996729;28;19921;-90
2023/07/19 16:11:21;;;;;;;;;;;;;;;;;;4980581;28;19926;-91
2023/07/19 16:13:47;;;;;;;;;;;;;;;;;;4996772;28;20389;-92
2023/07/19 16:16:13;;;;;;;;;;;;;;;;;;5014448;28;19925;-91
2023/07/19 16:18:39;;;;;;;;;;;;;;;;;;4996485;28;19926;-91
2023/07/19 16:21:06;;;;;;;;;;;;;;;;;;4996578;28;19964;-91
2023/07/19 16:23:32;;;;;;;;;;;;;;;;;;4996953;28;19922;-92
2023/07/19 16:25:58;;;;;;;;;;;;;;;;;;4996264;28;19971;-92
2023/07/19 16:28:24;;;;;;;;;;;;;;;;;;4980094;28;20292;-91
2023/07/19 16:30:50;;;;;;;;;;;;;;;;;;4980235;28;19925;-92
2023/07/19 16:33:16;;;;;;;;;;;;;;;;;;4996815;28;19921;-92
2023/07/19 16:35:42;;;;;;;;;;;;;;;;;;5014102;28;19922;-92
2023/07/19 16:38:09;;;;;;;;;;;;;;;;;;4996258;28;19933;-91